Main page
METAR-TAF:

METAR-TAF

Airports :

Spokane International Airport

Spokane, Washington, United States

latitude: 47-37-17N, longitude: 117-31-40W, elevation: 2371 ft

Current weather observation

The report was made 58 minutes ago, at 09:53 UTC
Wind 5 mph from the South
Temperature 75°F
Humidity 27%
Pressure 30.14 in. Hg
Visibility: 10 miles
Clear sky

METAR: KGEG 200953Z 17004KT 10SM CLR 24/04 A3014 RMK AO2 SLP181 T02440044

Time: 03:51 (10:51 UTC)

Forecast

The report was made 5 hours and 31 minutes ago, at 05:20 UTC
Forecast valid from 20 at 06 UTC to 21 at 06 UTC
Wind 6 mph from variable directions
Visibility: 6 miles
Clear sky
From 20 at 1800 UTC
Wind 6 mph from variable directions
Visibility: 6 miles
Broken clouds at a height of 25000 ft
From 21 at 0000 UTC
Wind 6 mph from the North
Visibility: 6 miles
Clear sky

TAF: KGEG 200520Z 2006/2106 VRB05KT P6SM SKC FM201800 VRB05KT P6SM BKN250 FM210000 35005KT P6SM SKC

Weather observations and forecasts of more than 4000 airports (METAR and TAF reports).

The available stations are represented by yellow and red dots on the map.

Hover mouse over dot to see the name of the station.

Then click to see weather observations and forecasts.

To change the map : click on the green buttons with a black cross to zoom in, on the green button with a dash to zoom out, or on the green arrows for adjacent maps.


METAR-TAF: